• Join FlightAware (Why Join?)
  • Login
  • US Flag 
03:39AM EDT


 

Airport Tracker/Info


-or-


 

Live Flight TrackerFlight Track Log ✈ N808V ✈ 24-Oct-2013 ✈ KDAL - KLIT

Flight Track Log - Related Links

Times and Time Zones

All times are in EDT time to prevent confusion due to time zone crossing. See the N808V flight status page for this flight to view local times or setup timezone preferences in your user account.

Time Position Orientation Groundspeed Altitude Reporting Facility
EDT Latitude Longitude Course Direction KTS MPH feet Rate Location/Type
06:58PM 32.8833 -96.8833 320° Northwest 208 239 2,300  Level Dallas / Fort Worth TRACON
06:59PM 32.9333 -96.9167 331° Northwest 247 284 4,200 2,280 Climbing Dallas / Fort Worth TRACON
07:00PM 32.9833 -96.8667 40° Northeast 278 320 6,900 5,580 Climbing Dallas / Fort Worth TRACON
07:02PM 33.0314 -96.6281 76° East 296 341 25,000 2,460 Climbing Fort Worth Center
07:03PM 33.0998 -96.2657 69° East  Level Estimated
07:03PM 33.0494 -96.5064 80° East 325 374 16,200  Level Fort Worth Center
07:04PM 33.0714 -96.3944 77° East 335 386 18,100 1,860 Climbing Fort Worth Center
07:05PM 33.0997 -96.2803 73° East 341 392 20,000 2,040 Climbing Fort Worth Center
07:06PM 33.1342 -96.1631 71° East 354 407 22,200 1,920 Climbing Fort Worth Center
07:07PM 33.1622 -96.0586 72° East 367 422 23,900 1,380 Climbing Fort Worth Center
07:08PM 33.1983 -95.9389 70° East 372 428 25,000 540 Climbing Fort Worth Center
07:09PM 33.2386 -95.8039 70° East 397 457 25,000  Level Fort Worth Center
07:10PM 33.2783 -95.6617 71° East 427 491 25,000  Level Fort Worth Center
07:11PM 33.3181 -95.5167 72° East 441 507 25,000  Level Fort Worth Center
07:12PM 33.3617 -95.3714 70° East 453 521 25,000  Level Fort Worth Center
07:13PM 33.4050 -95.2261 70° East 453 521 25,000  Level Fort Worth Center
07:14PM 33.4464 -95.0808 71° East 459 528 25,000  Level Fort Worth Center
07:15PM 33.4894 -94.9353 70° East 464 534 25,000  Level Fort Worth Center
07:16PM 33.5303 -94.7894 71° East 464 534 25,000  Level Fort Worth Center
07:17PM 33.5711 -94.6411 72° East 464 534 25,000  Level Fort Worth Center
07:18PM 33.6136 -94.4928 71° East 464 534 25,000  Level Fort Worth Center
07:19PM 33.6558 -94.3442 71° East 469 540 25,000  Level Fort Worth Center
07:20PM 33.7003 -94.1978 70° East 464 534 25,000  Level Fort Worth Center
07:21PM 33.7678 -94.0653 58° Northeast 464 534 25,000  Level Fort Worth Center
07:22PM 33.8331 -93.9303 60° Northeast 459 528 25,000  Level Fort Worth Center
07:23PM 33.9133 -93.7686 59° Northeast 472 543 25,000  Level Memphis Center
07:24PM 33.9772 -93.6386 59° Northeast 467 537 25,000 -960 Level Memphis Center
07:25PM 34.0414 -93.5056 60° Northeast 456 525 23,100 -2,100 Descending Memphis Center
07:26PM 34.1028 -93.3800 59° Northeast 446 513 20,800 -2,100 Descending Memphis Center
07:27PM 34.1578 -93.2639 60° Northeast 423 487 19,000 -900 Descending Memphis Center
07:28PM 34.2147 -93.1478 59° Northeast 402 463 19,000 -360 Level Memphis Center
07:29PM 34.2278 -93.1206 60° Northeast 392 451 18,600 -2,400 Descending Memphis Center
07:29PM 34.2650 -93.0439 60° Northeast 402 463 17,000 -2,220 Descending Memphis Center
07:29PM 34.2736 -93.0339 44° Northeast 397 457 16,700 -3,300 Descending Memphis Center
07:30PM 34.3214 -92.9325 60° Northeast 367 422 13,700 -3,300 Descending Memphis Center
07:30PM 34.3258 -92.9275 43° Northeast 385 443 13,500 -3,120 Descending Memphis Center
07:31PM 34.3608 -92.8456 63° Northeast 323 372 10,900 -3,060 Descending Memphis Center
07:31PM 34.3717 -92.8256 57° Northeast 360 414 10,400 -900 Descending Memphis Center
07:32PM 34.4044 -92.7536 61° Northeast 288 331 10,000 -420 Descending Memphis Center
07:32PM 34.4108 -92.7411 58° Northeast 319 367 10,000 -300 Level Memphis Center
07:33PM 34.4414 -92.6742 61° Northeast 273 314 9,700 -540 Descending Memphis Center
07:33PM 34.4481 -92.6567 65° Northeast 287 330 9,500 -1,500 Descending Memphis Center
07:34PM 34.4869 -92.5719 61° Northeast 282 325 7,900 -1,680 Descending Memphis Center
07:35PM 34.5175 -92.4947 64° Northeast 275 316 6,400 -1,440 Descending Memphis Center
07:35PM 34.5239 -92.4922 18° North 282 325 6,500 -1,140 Climbing Memphis Center
07:36PM 34.5564 -92.4200 61° Northeast 263 303 5,200 -1,260 Descending Memphis Center
07:37PM 34.5844 -92.3550 62° Northeast 240 276 4,000 -1,320 Descending Memphis Center
07:38PM 34.5825 -92.3525 133° Southeast 216 249 3,900 -1,020 Descending Memphis Center
07:38PM 34.6083 -92.2975 60° Northeast 210 242 3,000 -1,020 Descending Memphis Center
07:39PM 34.6106 -92.2925 62° Northeast 148 170 2,800 -720 Descending Memphis Center
07:39PM 34.6381 -92.2681 36° Northeast 164 189 2,300 -720 Descending Memphis Center
07:40PM 34.6464 -92.2656 14° North 126 145 2,100 -720 Descending Memphis Center
07:40PM 34.6717 -92.2511 25° Northeast 132 152 1,600 -780 Descending Memphis Center
07:41PM 34.6800 -92.2511 360° North 126 145 1,300 -900 Descending Memphis Center
07:42PM 34.7114 -92.2444 10° North 110 127 500 -840 Descending Memphis Center